This is the latest recevied weather packets stored in our database for station/object LRTR. If no packets are shown the sender has not sent any weather packets the latest 10 day(s).
| Time | Temp. | Humidity | Pressure | Rain* | Wind** | Luminosity | Snow |
|---|---|---|---|---|---|---|---|
| 1778021285 | 15° C | 48% | 1012 hPa | - | - | - | - |
| 1778020385 | 15° C | 48% | 1012 hPa | - | - | - | - |
| 1778018585 | 10° C | 76% | 1012 hPa | - | - | - | - |
| 1778017686 | 10° C | 76% | 1012 hPa | - | - | - | - |
| 1778016785 | 10° C | 76% | 1012 hPa | - | - | - | - |
| 1778015885 | 10° C | 76% | 1012 hPa | - | - | - | - |
| 1778014985 | 10° C | 76% | 1012 hPa | - | - | - | - |
| 1778014087 | 11.11° C | 72% | 1012 hPa | - | - | - | - |
| 1778013184 | 11.11° C | 72% | 1012 hPa | - | - | - | - |
| 1778012316 | 11.11° C | 72% | 1011 hPa | - | - | - | - |
| 1778011385 | 11.11° C | 72% | 1011 hPa | - | - | - | - |
| 1778010485 | 12.78° C | 63% | 1011 hPa | - | - | - | - |
| 1778009585 | 12.78° C | 63% | 1011 hPa | - | - | - | - |
| 1778008685 | 15° C | 51% | 1011 hPa | - | - | - | - |
| 1778007785 | 15° C | 51% | 1011 hPa | - | - | - | - |
| 1778006885 | 18.89° C | 37% | 1011 hPa | - | - | - | - |
| 1778005986 | 18.89° C | 37% | 1011 hPa | - | - | - | - |
| 1778005085 | 22.22° C | 27% | 1011 hPa | - | - | - | - |
| 1778004185 | 22.22° C | 27% | 1011 hPa | - | - | - | - |
| 1778003282 | 23.89° C | 24% | 1011 hPa | - | - | - | - |
| 1778002385 | 23.89° C | 24% | 1011 hPa | - | - | - | - |
| 1778001485 | 25° C | 22% | 1011 hPa | - | - | - | - |
| 1778000585 | 25° C | 22% | 1011 hPa | - | - | - | - |
| 1777999685 | 27.22° C | 17% | 1011 hPa | - | - | - | - |
| 1777998785 | 27.22° C | 17% | 1011 hPa | - | - | - | - |
* Rain since midnight (hover to see other rain measurements)
** Current wind speed in m/s (hover to see current wind gust speed)